Time;durP1;ratioP1;P1;durP2;ratioP2;P2;SDS_P1;SDS_P2;PMS_P1;PMS_P2;Temp;Humidity;BMP_temperature;BMP_pressure;BME280_temperature;BME280_humidity;BME280_pressure;Samples;Min_cycle;Max_cycle;Signal;HPM_P1;HPM_P2
2022/03/10 00:00:47;;;;;;;30.13;16.87;;;4.70;1.00;;;;;;6284673;28;20604;-56
2022/03/10 00:03:50;;;;;;;19.70;15.90;;;4.80;1.00;;;;;;6292218;28;20721;-56
2022/03/10 00:06:53;;;;;;;22.23;16.30;;;4.50;1.00;;;;;;6291246;28;20224;-57
2022/03/10 00:09:57;;;;;;;23.27;16.67;;;4.80;1.00;;;;;;6300903;28;20252;-58
2022/03/10 00:13:00;;;;;;;20.90;15.77;;;4.60;1.00;;;;;;6309632;28;20247;-56
2022/03/10 00:16:02;;;;;;;25.00;17.53;;;4.40;1.00;;;;;;6296643;28;20245;-56
2022/03/10 00:19:05;;;;;;;25.63;17.83;;;4.40;1.00;;;;;;6285057;28;20286;-56
2022/03/10 00:22:11;;;;;;;25.03;16.83;;;4.40;1.00;;;;;;6285149;28;20715;-56
2022/03/10 00:25:16;;;;;;;25.60;17.33;;;4.20;1.00;;;;;;6285903;28;20314;-56
2022/03/10 00:28:20;;;;;;;23.53;17.17;;;4.30;1.00;;;;;;6274778;28;20244;-57
2022/03/10 00:31:23;;;;;;;25.83;17.97;;;4.20;1.00;;;;;;6284250;28;20261;-56
2022/03/10 00:34:26;;;;;;;25.00;17.70;;;4.10;1.00;;;;;;6299787;28;20241;-57
2022/03/10 00:37:29;;;;;;;26.90;18.80;;;4.20;1.00;;;;;;6307797;28;20287;-56
2022/03/10 00:40:33;;;;;;;23.67;18.30;;;4.20;1.00;;;;;;6303080;28;20707;-57
2022/03/10 00:43:36;;;;;;;25.03;18.33;;;4.30;1.00;;;;;;6299761;28;20247;-55
2022/03/10 00:46:39;;;;;;;27.07;18.23;;;4.20;1.00;;;;;;6310079;28;20484;-57
2022/03/10 00:49:42;;;;;;;23.80;17.47;;;4.10;1.00;;;;;;6309501;28;20358;-57
2022/03/10 00:52:46;;;;;;;24.67;18.77;;;4.10;1.00;;;;;;6297459;28;20243;-56
2022/03/10 00:55:50;;;;;;;26.27;18.20;;;4.00;1.00;;;;;;6283686;28;20302;-56
2022/03/10 00:58:53;;;;;;;24.93;18.50;;;4.10;1.00;;;;;;6283616;28;20266;-55
2022/03/10 01:01:56;;;;;;;23.30;17.97;;;3.90;1.00;;;;;;6293399;28;20270;-57
2022/03/10 01:04:59;;;;;;;22.20;16.47;;;4.00;1.00;;;;;;6297033;28;20320;-57
2022/03/10 01:08:02;;;;;;;22.20;17.80;;;4.10;1.00;;;;;;6288301;28;20326;-57
2022/03/10 01:11:06;;;;;;;22.83;16.77;;;4.00;1.00;;;;;;6301216;28;20443;-55
2022/03/10 01:14:09;;;;;;;25.00;17.40;;;3.80;1.00;;;;;;6288560;28;20660;-56
2022/03/10 01:17:12;;;;;;;24.47;18.07;;;3.70;1.00;;;;;;6282152;28;20320;-55
2022/03/10 01:20:15;;;;;;;28.80;19.03;;;3.90;1.00;;;;;;6282971;28;20324;-57
2022/03/10 01:23:18;;;;;;;25.20;18.43;;;3.90;1.00;;;;;;6282674;28;20316;-57
2022/03/10 01:26:27;;;;;;;23.57;17.13;;;3.70;1.00;;;;;;6282410;28;20237;-56
2022/03/10 01:29:29;;;;;;;23.10;17.37;;;3.60;1.00;;;;;;6283076;28;20316;-57
2022/03/10 01:32:32;;;;;;;24.53;18.50;;;3.60;1.00;;;;;;6290782;28;20276;-56
2022/03/10 01:35:35;;;;;;;23.47;17.67;;;3.70;1.00;;;;;;6307724;28;20309;-56
2022/03/10 01:38:39;;;;;;;23.47;17.57;;;3.50;1.00;;;;;;6301280;28;20306;-56
2022/03/10 01:41:45;;;;;;;24.00;16.97;;;3.80;1.00;;;;;;6307868;28;20463;-55
2022/03/10 01:44:52;;;;;;;25.07;17.87;;;3.60;1.00;;;;;;6307847;28;20744;-55
2022/03/10 01:47:55;;;;;;;24.53;18.43;;;3.60;1.00;;;;;;6291317;28;20645;-55
2022/03/10 01:50:58;;;;;;;23.97;18.67;;;3.50;1.00;;;;;;6282839;28;20240;-56
2022/03/10 01:54:01;;;;;;;25.40;18.90;;;3.50;1.00;;;;;;6284366;28;20328;-57
2022/03/10 01:57:05;;;;;;;27.00;18.70;;;3.50;1.00;;;;;;6294275;28;20332;-56
2022/03/10 02:00:09;;;;;;;26.13;19.60;;;3.50;1.00;;;;;;6313887;28;20252;-60
2022/03/10 02:03:12;;;;;;;27.80;19.37;;;3.30;1.00;;;;;;6313665;28;20232;-56
2022/03/10 02:06:15;;;;;;;25.90;19.63;;;3.30;1.00;;;;;;6301409;28;20616;-55
2022/03/10 02:12:40;;;;;;;31.33;20.60;;;3.20;1.00;;;;;;6311186;28;20810;-55
2022/03/10 02:19:04;;;;;;;27.10;20.57;;;3.30;1.00;;;;;;6287624;28;20229;-58
2022/03/10 02:22:11;;;;;;;30.33;20.53;;;3.40;1.00;;;;;;6287148;28;20554;-56
2022/03/10 02:25:16;;;;;;;32.23;20.53;;;3.40;1.00;;;;;;6287607;28;20225;-55
2022/03/10 02:28:19;;;;;;;29.27;21.00;;;3.40;1.00;;;;;;6292137;28;20347;-55
2022/03/10 02:31:22;;;;;;;27.40;19.33;;;3.40;1.00;;;;;;6311451;28;20530;-56
2022/03/10 02:34:24;;;;;;;28.77;19.73;;;3.30;1.00;;;;;;6312854;28;20371;-55
2022/03/10 02:37:28;;;;;;;26.63;19.53;;;3.30;1.00;;;;;;6306892;28;20433;-57
2022/03/10 02:40:31;;;;;;;26.07;18.80;;;3.40;1.00;;;;;;6304200;28;20246;-56
2022/03/10 02:43:34;;;;;;;29.23;19.90;;;3.10;1.00;;;;;;6311130;28;20785;-55
2022/03/10 02:46:37;;;;;;;32.60;21.93;;;3.20;1.00;;;;;;6308328;28;20350;-55
2022/03/10 02:49:40;;;;;;;27.47;19.33;;;3.30;1.00;;;;;;6288003;28;20241;-55
2022/03/10 02:52:45;;;;;;;29.97;20.30;;;3.10;1.00;;;;;;6286246;28;20756;-56
2022/03/10 02:55:47;;;;;;;31.83;19.93;;;3.10;1.00;;;;;;6288434;28;20835;-54
2022/03/10 02:58:50;;;;;;;31.13;20.77;;;3.30;1.00;;;;;;6287069;28;20587;-56
2022/03/10 03:01:55;;;;;;;26.60;18.50;;;3.10;1.00;;;;;;6286916;28;20316;-55
2022/03/10 03:04:58;;;;;;;27.60;19.37;;;3.20;1.00;;;;;;6298068;28;20292;-55
2022/03/10 03:08:02;;;;;;;27.53;19.77;;;2.90;1.00;;;;;;6302559;28;20677;-55
2022/03/10 03:11:05;;;;;;;29.20;19.47;;;3.10;1.00;;;;;;6305516;28;20236;-57
2022/03/10 03:14:08;;;;;;;31.40;20.37;;;3.00;1.00;;;;;;6291476;28;20328;-57
2022/03/10 03:17:11;;;;;;;25.53;18.87;;;2.90;1.00;;;;;;6287624;28;20730;-55
2022/03/10 03:20:15;;;;;;;28.30;19.87;;;3.10;1.00;;;;;;6288992;28;20235;-57
2022/03/10 03:23:19;;;;;;;28.80;18.97;;;3.00;1.00;;;;;;6284649;28;20638;-55
2022/03/10 03:26:22;;;;;;;27.20;19.67;;;2.80;1.00;;;;;;6286188;28;20260;-55
2022/03/10 03:29:25;;;;;;;31.57;19.77;;;2.90;1.00;;;;;;6285298;28;20319;-57
2022/03/10 03:32:28;;;;;;;27.60;19.47;;;3.00;1.00;;;;;;6287114;28;20237;-57
2022/03/10 03:35:31;;;;;;;25.80;19.07;;;2.80;1.00;;;;;;6305372;28;20232;-57
2022/03/10 03:38:35;;;;;;;28.80;19.60;;;3.10;1.00;;;;;;6310130;28;20305;-56
2022/03/10 03:41:41;;;;;;;25.03;19.07;;;2.90;1.00;;;;;;6304219;28;20642;-55
2022/03/10 03:44:44;;;;;;;32.10;20.03;;;3.10;1.00;;;;;;6300782;28;20293;-55
2022/03/10 03:47:47;;;;;;;28.87;19.73;;;3.00;1.00;;;;;;6303197;28;20306;-57
2022/03/10 03:50:50;;;;;;;31.03;19.60;;;2.90;1.00;;;;;;6310196;28;20366;-56
2022/03/10 03:53:54;;;;;;;27.40;19.20;;;3.00;1.00;;;;;;6310347;28;20233;-57
2022/03/10 03:56:56;;;;;;;30.03;19.77;;;2.90;1.00;;;;;;6309375;28;20557;-55
2022/03/10 03:59:59;;;;;;;29.60;19.03;;;3.00;1.00;;;;;;6311401;28;20325;-56
2022/03/10 04:03:08;;;;;;;26.23;19.07;;;2.90;1.00;;;;;;6309835;28;20335;-57
2022/03/10 04:06:11;;;;;;;28.03;19.30;;;2.80;1.00;;;;;;6295894;28;20425;-57
2022/03/10 04:09:16;;;;;;;26.70;19.20;;;2.90;1.00;;;;;;6294899;28;20320;-57
2022/03/10 04:12:18;;;;;;;28.73;19.07;;;2.40;1.00;;;;;;6310093;28;20233;-56
2022/03/10 04:15:21;;;;;;;26.13;19.30;;;2.80;1.00;;;;;;6309495;28;20331;-57
2022/03/10 04:18:24;;;;;;;26.13;18.80;;;2.70;1.00;;;;;;6308382;28;20315;-56
2022/03/10 04:21:27;;;;;;;27.93;20.67;;;2.80;1.00;;;;;;6308777;28;20744;-56
2022/03/10 04:24:31;;;;;;;27.30;19.57;;;2.80;1.00;;;;;;6286865;28;20252;-56
2022/03/10 04:27:34;;;;;;;29.07;18.90;;;2.50;1.00;;;;;;6283389;28;20297;-56
2022/03/10 04:30:38;;;;;;;29.20;19.50;;;2.70;1.00;;;;;;6280228;28;20336;-57
2022/03/10 04:33:41;;;;;;;28.03;18.80;;;2.70;1.00;;;;;;6285849;28;20437;-56
2022/03/10 04:36:44;;;;;;;37.10;20.83;;;2.40;1.00;;;;;;6303010;28;20232;-57
2022/03/10 04:39:48;;;;;;;26.57;19.50;;;2.60;1.00;;;;;;6307690;28;20308;-55
2022/03/10 04:42:51;;;;;;;27.83;19.63;;;2.50;1.00;;;;;;6303731;28;20229;-57
2022/03/10 04:45:54;;;;;;;28.00;20.00;;;2.60;1.00;;;;;;6302416;28;20891;-57
2022/03/10 04:48:57;;;;;;;28.20;19.27;;;2.40;1.00;;;;;;6299321;28;20232;-56
2022/03/10 04:52:01;;;;;;;33.17;20.70;;;2.70;1.00;;;;;;6301756;28;20232;-56
2022/03/10 04:55:06;;;;;;;28.73;19.70;;;2.60;1.00;;;;;;6301124;28;20708;-55
2022/03/10 04:58:11;;;;;;;27.50;20.23;;;2.60;1.00;;;;;;6301540;28;20296;-56
2022/03/10 05:01:14;;;;;;;38.90;20.30;;;2.50;1.00;;;;;;6307428;28;20904;-56
2022/03/10 05:04:17;;;;;;;29.27;19.73;;;2.60;1.00;;;;;;6301023;28;20243;-56
2022/03/10 05:07:19;;;;;;;30.53;20.47;;;2.60;1.00;;;;;;6295261;28;20393;-57
2022/03/10 05:10:24;;;;;;;30.97;21.07;;;2.30;1.00;;;;;;6309213;28;20314;-57
2022/03/10 05:13:26;;;;;;;32.27;20.43;;;2.40;1.00;;;;;;6308337;28;20255;-56
2022/03/10 05:16:29;;;;;;;35.53;21.47;;;2.20;1.00;;;;;;6304607;28;20271;-56
2022/03/10 05:19:32;;;;;;;29.90;20.97;;;2.50;1.00;;;;;;6311200;28;20228;-57
2022/03/10 05:22:43;;;;;;;28.80;20.10;;;2.30;1.00;;;;;;6306349;28;20697;-57
2022/03/10 05:25:48;;;;;;;30.43;21.30;;;2.40;1.00;;;;;;6297213;28;20320;-56
2022/03/10 05:28:50;;;;;;;29.63;20.47;;;2.60;1.00;;;;;;6308819;28;20239;-58
2022/03/10 05:31:54;;;;;;;30.93;21.50;;;2.40;1.00;;;;;;6306777;28;20327;-58
2022/03/10 05:34:56;;;;;;;34.50;21.77;;;2.40;1.00;;;;;;6303148;28;20561;-56
2022/03/10 05:38:00;;;;;;;33.63;21.83;;;1.90;1.00;;;;;;6307888;28;20862;-58
2022/03/10 05:41:05;;;;;;;30.43;20.97;;;2.30;1.00;;;;;;6307345;28;20256;-56
2022/03/10 05:44:07;;;;;;;35.80;21.97;;;2.20;1.00;;;;;;6306522;28;20233;-56
2022/03/10 05:47:10;;;;;;;29.37;21.73;;;2.40;1.00;;;;;;6299465;28;20366;-56
2022/03/10 05:50:14;;;;;;;34.77;21.87;;;2.40;1.00;;;;;;6307055;28;20454;-55
2022/03/10 05:53:19;;;;;;;33.80;22.10;;;2.30;1.00;;;;;;6306044;28;20232;-55
2022/03/10 05:56:23;;;;;;;36.03;22.40;;;2.30;1.00;;;;;;6301127;28;20811;-57
2022/03/10 05:59:26;;;;;;;35.23;21.93;;;2.20;1.00;;;;;;6308003;28;20319;-56
2022/03/10 06:02:29;;;;;;;35.50;22.63;;;2.10;1.00;;;;;;6307819;28;20240;-57
2022/03/10 06:05:33;;;;;;;33.47;23.43;;;2.40;1.00;;;;;;6307962;28;20316;-55
2022/03/10 06:08:35;;;;;;;32.77;21.73;;;2.30;1.00;;;;;;6300838;28;20393;-56
2022/03/10 06:11:39;;;;;;;33.27;21.93;;;2.30;1.00;;;;;;6302832;28;20332;-55
2022/03/10 06:14:44;;;;;;;34.53;22.30;;;2.20;1.00;;;;;;6306232;28;20229;-57
2022/03/10 06:17:46;;;;;;;35.67;22.23;;;2.40;1.00;;;;;;6307102;28;20239;-57
2022/03/10 06:20:49;;;;;;;36.03;23.27;;;2.50;1.00;;;;;;6302799;28;20733;-55
2022/03/10 06:23:52;;;;;;;34.77;22.20;;;2.30;1.00;;;;;;6305750;28;20236;-55
2022/03/10 06:26:56;;;;;;;36.37;22.70;;;2.40;1.00;;;;;;6307515;28;20321;-57
2022/03/10 06:29:59;;;;;;;38.43;23.63;;;2.60;1.00;;;;;;6307870;28;20255;-56
2022/03/10 06:33:02;;;;;;;35.53;23.57;;;2.70;1.00;;;;;;6302561;28;20248;-56
2022/03/10 06:36:06;;;;;;;39.20;23.97;;;2.60;1.00;;;;;;6302627;28;20622;-56
2022/03/10 06:39:09;;;;;;;36.27;24.07;;;2.50;1.00;;;;;;6302002;28;20247;-57
2022/03/10 06:42:13;;;;;;;35.60;24.03;;;2.60;1.00;;;;;;6305904;28;20229;-57
2022/03/10 06:45:15;;;;;;;39.57;23.27;;;3.00;1.00;;;;;;6309727;28;20661;-57
2022/03/10 06:48:18;;;;;;;41.30;24.33;;;2.90;1.00;;;;;;6310035;28;20316;-57
2022/03/10 06:51:21;;;;;;;38.50;23.63;;;3.00;1.00;;;;;;6303422;28;20224;-58
2022/03/10 06:54:24;;;;;;;41.83;24.43;;;2.90;1.00;;;;;;6312156;28;20237;-55
2022/03/10 06:57:28;;;;;;;35.10;22.60;;;3.10;1.00;;;;;;6311338;28;20319;-56
2022/03/10 07:00:32;;;;;;;38.73;23.17;;;3.40;1.00;;;;;;6306682;28;20233;-55
2022/03/10 07:03:35;;;;;;;33.27;23.03;;;3.60;1.00;;;;;;6309971;28;20240;-57
2022/03/10 07:06:38;;;;;;;34.37;22.33;;;3.80;1.00;;;;;;6309206;28;20768;-55
2022/03/10 07:09:41;;;;;;;34.77;23.60;;;3.90;1.00;;;;;;6304607;28;20842;-55
2022/03/10 07:12:45;;;;;;;38.93;24.53;;;3.90;1.00;;;;;;6311912;28;20316;-56
2022/03/10 07:15:48;;;;;;;41.80;24.80;;;4.00;1.00;;;;;;6306544;28;20242;-57
2022/03/10 07:18:51;;;;;;;33.43;22.73;;;3.80;1.00;;;;;;6309685;28;20230;-57
2022/03/10 07:21:54;;;;;;;35.30;23.73;;;3.60;1.00;;;;;;6307950;28;20749;-55
2022/03/10 07:24:57;;;;;;;41.67;23.90;;;4.00;1.00;;;;;;6311122;28;20249;-56
2022/03/10 07:28:01;;;;;;;35.10;23.07;;;4.40;1.00;;;;;;6307565;28;20248;-57
2022/03/10 07:31:04;;;;;;;38.13;23.53;;;4.60;1.00;;;;;;6312271;28;20308;-56
2022/03/10 07:34:07;;;;;;;31.53;22.70;;;4.50;1.00;;;;;;6304882;28;20712;-57
2022/03/10 07:37:09;;;;;;;34.43;23.63;;;4.20;1.00;;;;;;6310114;28;20370;-59
2022/03/10 07:40:13;;;;;;;33.60;23.57;;;4.40;1.00;;;;;;6307146;28;20232;-60
2022/03/10 07:43:18;;;;;;;37.23;23.70;;;4.50;1.00;;;;;;6309198;28;20330;-56
2022/03/10 07:46:22;;;;;;;35.43;24.00;;;4.50;1.00;;;;;;6310282;28;20643;-56
2022/03/10 07:49:25;;;;;;;32.80;23.47;;;4.50;1.00;;;;;;6306452;28;20229;-58
2022/03/10 07:52:28;;;;;;;37.47;23.80;;;4.40;1.00;;;;;;6309920;28;20270;-56
2022/03/10 07:55:31;;;;;;;37.17;22.90;;;4.50;1.00;;;;;;6311007;28;20278;-57
2022/03/10 07:58:35;;;;;;;35.33;22.70;;;4.60;1.00;;;;;;6305268;28;20323;-56
2022/03/10 08:01:40;;;;;;;36.00;23.00;;;4.80;1.00;;;;;;6310248;28;20239;-55
2022/03/10 08:04:43;;;;;;;34.23;22.33;;;4.80;1.00;;;;;;6306092;28;20303;-59
2022/03/10 08:07:46;;;;;;;32.57;22.17;;;4.70;1.00;;;;;;6306134;28;20240;-57
2022/03/10 08:10:49;;;;;;;35.60;24.00;;;5.10;1.00;;;;;;6301667;28;20546;-55
2022/03/10 08:13:54;;;;;;;33.23;21.60;;;5.00;1.00;;;;;;6304616;28;20347;-56
2022/03/10 08:16:56;;;;;;;35.10;22.60;;;5.10;1.00;;;;;;6309060;28;20346;-57
2022/03/10 08:19:59;;;;;;;33.63;23.23;;;5.20;1.00;;;;;;6307145;28;20258;-62
2022/03/10 08:23:03;;;;;;;31.73;22.77;;;5.30;1.00;;;;;;6306088;28;20277;-57
2022/03/10 08:26:06;;;;;;;34.00;23.60;;;5.30;1.00;;;;;;6307589;28;20713;-57
2022/03/10 08:29:10;;;;;;;35.60;23.13;;;5.60;1.00;;;;;;6309308;28;20658;-58
2022/03/10 08:32:13;;;;;;;33.57;21.10;;;5.60;1.00;;;;;;6306534;28;20311;-57
2022/03/10 08:35:17;;;;;;;39.07;25.47;;;5.90;1.00;;;;;;6303962;28;20309;-57
2022/03/10 08:38:19;;;;;;;34.73;23.97;;;6.00;1.00;;;;;;6301704;28;20317;-58
2022/03/10 08:41:22;;;;;;;35.60;22.07;;;6.30;1.00;;;;;;6302240;28;20323;-56
2022/03/10 08:44:26;;;;;;;34.30;21.90;;;6.60;1.00;;;;;;6301270;28;20342;-56
2022/03/10 08:47:29;;;;;;;36.27;22.07;;;6.40;1.00;;;;;;6308668;28;20306;-56
2022/03/10 08:50:32;;;;;;;33.23;22.23;;;6.70;1.00;;;;;;6306976;28;20408;-57
2022/03/10 08:53:36;;;;;;;30.87;22.03;;;6.80;1.00;;;;;;6308088;28;20288;-56
2022/03/10 08:56:39;;;;;;;34.03;22.07;;;6.70;1.00;;;;;;6307791;28;20625;-58
2022/03/10 08:59:43;;;;;;;34.20;22.17;;;6.70;1.00;;;;;;6297025;28;20312;-56
2022/03/10 09:02:46;;;;;;;32.10;22.13;;;6.90;1.00;;;;;;6297833;28;20224;-57
2022/03/10 09:05:49;;;;;;;29.50;21.47;;;6.90;1.00;;;;;;6307479;28;20232;-56
2022/03/10 09:08:52;;;;;;;31.70;22.10;;;6.80;1.00;;;;;;6293771;28;20311;-58
2022/03/10 09:11:55;;;;;;;33.17;22.30;;;7.20;1.00;;;;;;6307573;28;20706;-56
2022/03/10 09:14:59;;;;;;;30.30;21.60;;;7.20;1.00;;;;;;6301779;28;20362;-57
2022/03/10 09:18:02;;;;;;;34.60;21.83;;;7.40;1.00;;;;;;6307238;28;20239;-57
2022/03/10 09:21:06;;;;;;;29.50;22.10;;;7.40;1.00;;;;;;6303265;28;20302;-57
2022/03/10 09:24:09;;;;;;;35.57;22.50;;;7.50;1.00;;;;;;6304112;28;20770;-57
2022/03/10 09:27:11;;;;;;;28.53;20.90;;;7.50;1.00;;;;;;6305652;28;20362;-56
2022/03/10 09:30:16;;;;;;;31.90;21.67;;;7.60;1.00;;;;;;6305775;28;20250;-58
2022/03/10 09:33:19;;;;;;;30.07;21.93;;;7.60;1.00;;;;;;6307170;28;20323;-56
2022/03/10 09:36:22;;;;;;;36.77;21.63;;;7.70;1.00;;;;;;6307633;28;20243;-57
2022/03/10 09:39:25;;;;;;;28.90;20.23;;;7.90;1.00;;;;;;6305106;28;20225;-58
2022/03/10 09:42:29;;;;;;;30.40;21.37;;;7.90;1.00;;;;;;6301779;28;20549;-59
2022/03/10 09:45:36;;;;;;;30.93;20.67;;;8.00;1.00;;;;;;6306340;28;20348;-58
2022/03/10 09:48:41;;;;;;;30.17;20.53;;;8.20;1.00;;;;;;6301086;28;20232;-57
2022/03/10 09:51:43;;;;;;;32.77;21.37;;;8.30;1.00;;;;;;6307355;28;20285;-56
2022/03/10 09:54:47;;;;;;;30.33;21.00;;;8.40;1.00;;;;;;6304087;28;20389;-58
2022/03/10 09:57:50;;;;;;;26.80;19.70;;;8.60;1.00;;;;;;6307237;28;20285;-58
2022/03/10 10:01:00;;;;;;;30.20;21.23;;;8.70;1.00;;;;;;6307244;28;20224;-56
2022/03/10 10:04:03;;;;;;;27.57;20.13;;;8.70;1.00;;;;;;6307655;28;20251;-58
2022/03/10 10:07:07;;;;;;;30.23;20.47;;;8.90;1.00;;;;;;6301578;28;20243;-57
2022/03/10 10:10:10;;;;;;;28.30;20.57;;;9.00;1.00;;;;;;6299265;28;20243;-57
2022/03/10 10:13:24;;;;;;;32.00;19.90;;;9.10;1.00;;;;;;6305007;28;20241;-56
2022/03/10 10:16:29;;;;;;;27.40;20.03;;;9.10;1.00;;;;;;6301963;28;20903;-56
2022/03/10 10:19:33;;;;;;;25.87;19.13;;;9.20;1.00;;;;;;6312412;28;20262;-58
2022/03/10 10:22:55;;;;;;;28.37;21.13;;;9.30;1.00;;;;;;6309854;28;20236;-58
2022/03/10 10:26:01;;;;;;;26.93;18.87;;;9.30;1.00;;;;;;6308027;28;20225;-57
2022/03/10 10:29:04;;;;;;;22.53;18.97;;;9.50;1.00;;;;;;6309906;28;20279;-57
2022/03/10 10:32:09;;;;;;;28.53;19.27;;;9.60;1.00;;;;;;6309965;28;20237;-57
2022/03/10 10:35:23;;;;;;;22.40;18.90;;;9.60;1.00;;;;;;6294372;28;20715;-57
2022/03/10 10:38:31;;;;;;;27.63;18.57;;;9.70;1.00;;;;;;6302809;28;20233;-57
2022/03/10 10:41:34;;;;;;;21.17;18.10;;;9.90;1.00;;;;;;6312095;28;20245;-58
2022/03/10 10:44:36;;;;;;;24.93;18.90;;;9.90;1.00;;;;;;6302654;28;20252;-58
2022/03/10 10:47:58;;;;;;;30.20;20.60;;;10.00;1.00;;;;;;6312084;28;20236;-58
2022/03/10 10:51:01;;;;;;;24.00;17.70;;;10.00;1.00;;;;;;6311100;28;20690;-57
2022/03/10 10:54:07;;;;;;;20.00;17.57;;;10.00;1.00;;;;;;6308337;28;20731;-57
2022/03/10 10:57:21;;;;;;;23.97;18.90;;;10.20;1.00;;;;;;6311874;28;20233;-57
2022/03/10 11:00:24;;;;;;;26.97;19.00;;;10.40;1.00;;;;;;6300384;28;20699;-58
2022/03/10 11:03:31;;;;;;;19.73;17.27;;;10.50;1.00;;;;;;6310700;28;20627;-57
2022/03/10 11:06:35;;;;;;;18.43;16.13;;;10.50;1.00;;;;;;6308677;28;20238;-57
2022/03/10 11:09:39;;;;;;;23.47;17.73;;;10.70;1.00;;;;;;6304981;28;20781;-57
2022/03/10 11:12:44;;;;;;;21.83;17.13;;;10.90;1.00;;;;;;6306215;28;20252;-57
2022/03/10 11:15:47;;;;;;;19.80;16.13;;;10.90;1.00;;;;;;6308731;28;20238;-56
2022/03/10 11:18:53;;;;;;;16.57;14.87;;;11.10;1.00;;;;;;6310130;28;20217;-57
2022/03/10 11:22:18;;;;;;;17.83;14.97;;;11.10;1.00;;;;;;6303345;28;20258;-57
2022/03/10 11:25:31;;;;;;;16.93;14.97;;;11.20;1.00;;;;;;6309716;28;20739;-58
2022/03/10 11:28:36;;;;;;;20.20;15.73;;;11.20;1.00;;;;;;6306172;28;20673;-57
2022/03/10 11:31:40;;;;;;;19.27;15.13;;;11.30;1.00;;;;;;6309492;28;20232;-58
2022/03/10 11:34:49;;;;;;;19.00;15.97;;;11.30;1.00;;;;;;6308126;28;20332;-57
2022/03/10 11:37:53;;;;;;;17.07;15.30;;;11.40;1.00;;;;;;6309320;28;20707;-59
2022/03/10 11:40:57;;;;;;;16.93;15.13;;;11.40;1.00;;;;;;6307833;28;20326;-58
2022/03/10 11:44:01;;;;;;;20.27;15.57;;;11.20;1.00;;;;;;6302300;28;20239;-57
2022/03/10 11:47:18;;;;;;;16.50;14.80;;;10.80;1.00;;;;;;6306173;28;20569;-57
2022/03/10 11:50:31;;;;;;;19.07;15.33;;;10.90;1.00;;;;;;6309719;28;20225;-57
2022/03/10 11:54:04;;;;;;;18.53;15.10;;;10.90;1.00;;;;;;6304789;28;20721;-58
2022/03/10 11:57:09;;;;;;;17.80;14.73;;;11.10;1.00;;;;;;6308530;28;20625;-58
2022/03/10 12:00:17;;;;;;;14.40;12.87;;;11.10;1.00;;;;;;6307224;28;20244;-61
2022/03/10 12:03:37;;;;;;;15.23;13.73;;;11.20;1.00;;;;;;6296155;28;20240;-57
2022/03/10 12:06:48;;;;;;;15.40;13.80;;;11.20;1.00;;;;;;6304887;28;20858;-57
2022/03/10 12:10:03;;;;;;;16.07;14.37;;;11.00;1.00;;;;;;6303046;28;20404;-57
2022/03/10 12:13:21;;;;;;;18.10;14.53;;;10.90;1.00;;;;;;6309499;28;20240;-57
2022/03/10 12:16:40;;;;;;;16.53;13.27;;;11.00;1.00;;;;;;6305143;28;20663;-58
2022/03/10 12:20:12;;;;;;;19.40;14.47;;;10.70;1.00;;;;;;6308296;28;20718;-58
2022/03/10 12:23:17;;;;;;;17.63;14.17;;;10.70;1.00;;;;;;6308103;28;20250;-57
2022/03/10 12:26:26;;;;;;;20.33;13.63;;;10.90;1.00;;;;;;6304854;28;20235;-57
2022/03/10 12:29:35;;;;;;;17.13;14.67;;;11.00;1.00;;;;;;6305298;28;20418;-56
2022/03/10 12:32:41;;;;;;;16.83;14.00;;;11.00;1.00;;;;;;6306244;28;20233;-58
2022/03/10 12:35:44;;;;;;;15.37;13.77;;;10.70;1.00;;;;;;6304679;28;20243;-57
2022/03/10 12:38:48;;;;;;;15.93;14.33;;;10.80;1.00;;;;;;6302492;28;20323;-57
2022/03/10 12:41:54;;;;;;;19.17;15.73;;;10.90;1.00;;;;;;6304947;28;20320;-58
2022/03/10 12:44:57;;;;;;;15.07;13.70;;;11.00;1.00;;;;;;6304968;28;20319;-58
2022/03/10 12:48:06;;;;;;;17.03;15.20;;;10.80;1.00;;;;;;6307944;28;20221;-57
2022/03/10 12:51:23;;;;;;;16.87;15.17;;;10.80;1.00;;;;;;6307297;28;20311;-58
2022/03/10 12:54:29;;;;;;;17.90;15.27;;;10.60;1.00;;;;;;6299844;28;20332;-57
2022/03/10 12:57:32;;;;;;;20.07;15.83;;;10.70;1.00;;;;;;6307981;28;20236;-57
2022/03/10 13:00:38;;;;;;;23.27;16.17;;;10.70;1.00;;;;;;6305769;28;20499;-58
2022/03/10 13:03:49;;;;;;;17.83;15.93;;;10.70;1.00;;;;;;6305043;28;20237;-58
2022/03/10 13:06:59;;;;;;;16.77;15.17;;;10.60;1.00;;;;;;6304070;28;20229;-61
2022/03/10 13:10:05;;;;;;;19.70;16.53;;;10.70;1.00;;;;;;6300706;28;20240;-58
2022/03/10 13:13:08;;;;;;;17.57;15.70;;;10.70;1.00;;;;;;6298085;28;20711;-60
2022/03/10 13:16:11;;;;;;;17.43;15.53;;;10.80;1.00;;;;;;6306630;28;20358;-57
2022/03/10 13:19:24;;;;;;;21.50;17.03;;;10.80;1.00;;;;;;6307604;28;20232;-57
2022/03/10 13:22:27;;;;;;;17.60;15.87;;;10.60;1.00;;;;;;6299447;28;20237;-58
2022/03/10 13:25:35;;;;;;;20.47;16.87;;;10.60;1.00;;;;;;6308260;28;20263;-58
2022/03/10 13:28:38;;;;;;;19.47;17.33;;;10.60;1.00;;;;;;6306725;28;20443;-56
2022/03/10 13:31:40;;;;;;;18.20;16.23;;;10.40;1.00;;;;;;6303033;28;20321;-57
2022/03/10 13:34:44;;;;;;;17.60;15.70;;;10.50;1.00;;;;;;6303230;28;20355;-57
2022/03/10 13:37:47;;;;;;;18.73;14.97;;;10.60;1.00;;;;;;6307707;28;20255;-57
2022/03/10 13:40:53;;;;;;;21.17;15.80;;;10.70;1.00;;;;;;6301901;28;20828;-59
2022/03/10 13:43:56;;;;;;;17.40;15.60;;;10.60;1.00;;;;;;6304293;28;20297;-57
2022/03/10 13:47:06;;;;;;;16.97;14.93;;;10.70;1.00;;;;;;6306845;28;20237;-57
2022/03/10 13:50:11;;;;;;;16.87;15.20;;;10.70;1.00;;;;;;6307893;28;20225;-57
2022/03/10 13:53:14;;;;;;;18.43;14.90;;;10.70;1.00;;;;;;6304879;28;20296;-59
2022/03/10 13:56:18;;;;;;;15.97;14.27;;;10.50;1.00;;;;;;6308224;28;20316;-58
2022/03/10 13:59:21;;;;;;;15.97;14.20;;;10.40;1.00;;;;;;6306324;28;20448;-58
2022/03/10 14:02:27;;;;;;;20.70;14.50;;;10.30;1.00;;;;;;6305057;28;20609;-60
2022/03/10 14:05:40;;;;;;;17.63;14.13;;;10.30;1.00;;;;;;6298377;28;20382;-59
2022/03/10 14:08:49;;;;;;;14.20;12.73;;;10.40;1.00;;;;;;6299828;28;20236;-57
2022/03/10 14:11:54;;;;;;;14.07;12.70;;;10.50;1.00;;;;;;6308135;28;20225;-57
2022/03/10 14:14:58;;;;;;;18.00;13.47;;;10.60;1.00;;;;;;6307925;28;20260;-58
2022/03/10 14:18:01;;;;;;;16.40;13.77;;;10.60;1.00;;;;;;6305386;28;20232;-58
2022/03/10 14:21:06;;;;;;;18.90;13.70;;;10.60;1.00;;;;;;6308164;28;20748;-57
2022/03/10 14:24:08;;;;;;;18.77;13.80;;;10.50;1.00;;;;;;6306176;28;20236;-58
2022/03/10 14:27:15;;;;;;;13.77;12.43;;;10.50;1.00;;;;;;6306180;28;20370;-57
2022/03/10 14:30:25;;;;;;;14.80;13.43;;;10.60;1.00;;;;;;6307651;28;20312;-59
2022/03/10 14:33:30;;;;;;;14.03;12.67;;;10.60;1.00;;;;;;6303335;28;20248;-58
2022/03/10 14:36:33;;;;;;;14.37;13.07;;;10.60;1.00;;;;;;6307462;28;20750;-58
2022/03/10 14:39:37;;;;;;;14.00;12.63;;;10.30;1.00;;;;;;6300531;28;20367;-58
2022/03/10 14:42:41;;;;;;;13.43;12.20;;;10.30;1.00;;;;;;6296666;28;20720;-56
2022/03/10 14:45:45;;;;;;;12.97;11.57;;;10.30;1.00;;;;;;6305799;28;20370;-57
2022/03/10 14:48:49;;;;;;;14.17;11.43;;;10.20;1.00;;;;;;6307232;28;20233;-58
2022/03/10 14:51:53;;;;;;;13.20;11.90;;;10.20;1.00;;;;;;6306620;28;20303;-58
2022/03/10 14:54:56;;;;;;;15.70;12.30;;;10.10;1.00;;;;;;6302791;28;20228;-57
2022/03/10 14:58:00;;;;;;;13.97;11.10;;;10.10;1.00;;;;;;6306840;28;20651;-56
2022/03/10 15:01:03;;;;;;;11.30;10.30;;;10.00;1.00;;;;;;6302795;28;20228;-57
2022/03/10 15:04:08;;;;;;;11.13;10.13;;;10.00;1.00;;;;;;6305821;28;20239;-57
2022/03/10 15:07:11;;;;;;;13.77;11.03;;;10.00;1.00;;;;;;6310368;28;20741;-57
2022/03/10 15:10:17;;;;;;;11.33;10.40;;;9.90;1.00;;;;;;6311333;28;20270;-56
2022/03/10 15:13:21;;;;;;;11.43;10.30;;;9.70;1.00;;;;;;6306423;28;20404;-57
2022/03/10 15:16:24;;;;;;;11.17;10.10;;;9.70;1.00;;;;;;6310979;28;20304;-58
2022/03/10 15:19:27;;;;;;;10.77;9.87;;;9.60;1.00;;;;;;6308942;28;20762;-56
2022/03/10 15:22:30;;;;;;;10.73;9.73;;;9.50;1.00;;;;;;6307030;28;20809;-57
2022/03/10 15:25:34;;;;;;;10.67;9.67;;;9.60;1.00;;;;;;6308218;28;20538;-57
2022/03/10 15:28:38;;;;;;;11.60;10.60;;;9.50;1.00;;;;;;6304027;28;20244;-57
2022/03/10 15:31:41;;;;;;;10.73;9.70;;;9.50;1.00;;;;;;6303380;28;20506;-57
2022/03/10 15:34:44;;;;;;;10.00;9.07;;;9.40;1.00;;;;;;6307490;28;20236;-56
2022/03/10 15:37:49;;;;;;;10.13;9.23;;;9.30;1.00;;;;;;6298736;28;20385;-56
2022/03/10 15:40:54;;;;;;;10.67;9.83;;;9.20;1.00;;;;;;6304014;28;20248;-61
2022/03/10 15:43:58;;;;;;;10.90;9.90;;;9.10;1.00;;;;;;6306556;28;20737;-57
2022/03/10 15:47:02;;;;;;;10.87;9.87;;;9.00;1.00;;;;;;6307548;28;20717;-57
2022/03/10 15:50:05;;;;;;;10.67;9.43;;;8.90;1.00;;;;;;6310143;28;20221;-58
2022/03/10 15:53:08;;;;;;;12.37;10.67;;;8.90;1.00;;;;;;6309481;28;20779;-58
2022/03/10 15:56:11;;;;;;;10.20;9.37;;;8.80;1.00;;;;;;6307131;28;20271;-57
2022/03/10 15:59:15;;;;;;;12.47;11.23;;;8.70;1.00;;;;;;6307916;28;20288;-56
2022/03/10 16:02:18;;;;;;;11.83;10.73;;;8.60;1.00;;;;;;6309346;28;20370;-56
2022/03/10 16:05:21;;;;;;;12.63;10.60;;;8.50;1.00;;;;;;6303950;28;20608;-56